createdAt,value
2018-11-06T00:00:12.647Z,84.85
2018-11-06T00:02:41.448Z,85.11
2018-11-06T00:05:16.369Z,85.15
2018-11-06T00:07:45.555Z,84.95
2018-11-06T00:10:14.211Z,85.35
2018-11-06T00:12:42.932Z,85.10
2018-11-06T00:15:11.618Z,85.16
2018-11-06T00:17:40.746Z,85.51
2018-11-06T00:20:11.629Z,85.03
2018-11-06T00:22:40.213Z,85.39
2018-11-06T00:25:11.682Z,85.01
2018-11-06T00:27:40.789Z,85.35
2018-11-06T00:30:13.990Z,85.22
2018-11-06T00:32:43.872Z,85.46
2018-11-06T00:37:48.451Z,85.30
2018-11-06T00:40:17.265Z,85.27
2018-11-06T00:42:45.916Z,85.62
2018-11-06T00:47:49.413Z,85.22
2018-11-06T00:50:18.607Z,85.67
2018-11-06T00:52:47.465Z,85.60
2018-11-06T00:55:16.110Z,85.40
2018-11-06T00:57:45.116Z,85.33
2018-11-06T01:00:18.525Z,85.55
2018-11-06T01:02:47.290Z,85.94
2018-11-06T01:05:16.722Z,85.53
2018-11-06T01:07:47.607Z,85.62
2018-11-06T01:10:16.271Z,85.55
2018-11-06T01:12:44.810Z,85.61
2018-11-06T01:15:14.741Z,85.93
2018-11-06T01:17:44.293Z,85.58
2018-11-06T01:20:14.765Z,85.92
2018-11-06T01:22:43.849Z,85.86
2018-11-06T01:25:13.737Z,85.91
2018-11-06T01:27:42.260Z,86.04
2018-11-06T01:30:19.427Z,85.65
2018-11-06T01:32:48.327Z,85.59
2018-11-06T01:35:17.324Z,85.83
2018-11-06T01:37:46.627Z,85.63
2018-11-06T01:40:17.552Z,86.21
2018-11-06T01:42:46.670Z,85.87
2018-11-06T01:47:50.902Z,86.27
2018-11-06T01:50:19.697Z,86.32
2018-11-06T01:52:48.903Z,86.46
2018-11-06T01:55:17.935Z,86.52
2018-11-06T01:57:48.585Z,86.18
2018-11-06T02:00:18.663Z,86.44
2018-11-06T02:02:47.621Z,86.50
2018-11-06T02:05:17.112Z,86.38
2018-11-06T02:07:46.720Z,86.95
2018-11-06T02:10:16.011Z,86.70
2018-11-06T02:12:45.327Z,87.10
2018-11-06T02:15:14.152Z,87.23
2018-11-06T02:17:43.960Z,87.09
2018-11-06T02:22:47.909Z,87.35
2018-11-06T02:25:16.531Z,87.39
2018-11-06T02:27:45.314Z,87.50
2018-11-06T02:30:15.682Z,87.47
2018-11-06T02:32:46.706Z,87.75
2018-11-06T02:35:15.328Z,87.73
2018-11-06T02:37:44.029Z,87.55
2018-11-06T02:40:14.934Z,87.95
2018-11-06T02:45:24.526Z,87.47
2018-11-06T02:47:53.220Z,88.00
2018-11-06T02:50:24.730Z,87.78
2018-11-06T02:52:53.190Z,87.59
2018-11-06T02:55:21.901Z,87.60
2018-11-06T02:57:50.487Z,87.83
2018-11-06T03:00:19.207Z,87.51
2018-11-06T03:02:48.273Z,87.62
2018-11-06T03:05:16.863Z,87.33
2018-11-06T03:07:46.046Z,87.60
2018-11-06T03:10:15.297Z,87.67
2018-11-06T03:12:45.046Z,87.72
2018-11-06T03:15:14.601Z,88.22
2018-11-06T03:17:43.030Z,87.70
2018-11-06T03:20:12.366Z,87.76
2018-11-06T03:22:41.449Z,87.70
2018-11-06T03:27:44.952Z,87.96
2018-11-06T03:30:15.498Z,87.59
2018-11-06T03:32:44.159Z,87.66
2018-11-06T03:35:13.593Z,87.69
2018-11-06T03:37:42.187Z,87.96
2018-11-06T03:40:11.709Z,87.75
2018-11-06T03:42:41.204Z,87.58
2018-11-06T03:45:10.469Z,87.69
2018-11-06T03:47:39.837Z,87.46
2018-11-06T03:50:09.984Z,87.75
2018-11-06T03:52:38.545Z,87.94
2018-11-06T03:55:07.146Z,87.88
2018-11-06T03:57:35.712Z,87.68
2018-11-06T04:00:05.146Z,87.65
2018-11-06T04:02:33.692Z,87.38
2018-11-06T04:05:02.158Z,87.48
2018-11-06T04:07:30.860Z,87.61
2018-11-06T04:09:59.409Z,87.54
2018-11-06T04:12:28.444Z,87.69
2018-11-06T04:14:57.172Z,87.63
2018-11-06T04:17:26.429Z,87.64
2018-11-06T04:19:54.937Z,87.27
2018-11-06T04:22:28.416Z,87.41
2018-11-06T04:24:57.002Z,87.37
2018-11-06T04:27:26.380Z,87.27
2018-11-06T04:29:54.875Z,87.52
2018-11-06T04:34:57.985Z,87.70
2018-11-06T04:37:26.672Z,87.94
2018-11-06T04:39:55.200Z,87.69
2018-11-06T04:47:33.364Z,87.59
2018-11-06T04:50:01.962Z,87.84
2018-11-06T04:52:30.562Z,87.67
2018-11-06T04:54:59.299Z,87.84
2018-11-06T04:57:27.934Z,87.27
2018-11-06T04:59:57.064Z,87.51
2018-11-06T05:02:25.893Z,87.52
2018-11-06T05:04:55.117Z,87.76
2018-11-06T05:07:23.877Z,87.76
2018-11-06T05:09:52.502Z,87.76
2018-11-06T05:12:21.044Z,87.54
2018-11-06T05:14:49.753Z,87.57
2018-11-06T05:17:18.295Z,87.79
2018-11-06T05:19:46.912Z,87.90
2018-11-06T05:22:15.427Z,87.58
2018-11-06T05:24:44.033Z,87.74
2018-11-06T05:27:20.779Z,87.59
2018-11-06T05:29:50.089Z,87.46
2018-11-06T05:32:18.525Z,87.07
2018-11-06T05:34:47.130Z,87.24
2018-11-06T05:40:01.165Z,87.64
2018-11-06T05:42:29.605Z,87.32
2018-11-06T05:44:58.095Z,87.53
2018-11-06T05:47:26.684Z,87.31
2018-11-06T05:49:55.973Z,87.22
2018-11-06T05:52:24.508Z,87.51
2018-11-06T05:54:52.940Z,87.23
2018-11-06T05:57:22.060Z,86.99
2018-11-06T05:59:50.584Z,87.32
2018-11-06T06:04:53.680Z,87.50
2018-11-06T06:07:22.297Z,87.53
2018-11-06T06:09:50.744Z,87.40
2018-11-06T06:12:20.082Z,87.76
2018-11-06T06:14:48.609Z,87.11
2018-11-06T06:17:17.151Z,87.75
2018-11-06T06:19:45.715Z,87.47
2018-11-06T06:22:14.481Z,87.67
2018-11-06T06:24:43.137Z,87.52
2018-11-06T06:27:11.691Z,87.56
2018-11-06T06:29:40.990Z,87.54
2018-11-06T06:32:09.985Z,87.66
2018-11-06T06:34:39.033Z,87.25
2018-11-06T06:37:07.868Z,87.90
2018-11-06T06:39:36.917Z,87.74
2018-11-06T06:42:06.280Z,87.57
2018-11-06T06:44:35.215Z,87.63
2018-11-06T06:47:03.980Z,87.53
2018-11-06T06:49:32.778Z,87.29
2018-11-06T06:52:01.536Z,87.34
2018-11-06T06:54:30.197Z,87.85
2018-11-06T06:56:58.522Z,87.56
2018-11-06T06:59:27.756Z,87.35
2018-11-06T07:01:56.558Z,87.49
2018-11-06T07:04:25.259Z,87.48
2018-11-06T07:06:54.472Z,87.40
2018-11-06T07:09:23.363Z,87.37
2018-11-06T07:11:52.609Z,87.02
2018-11-06T07:14:21.096Z,87.45
2018-11-06T07:16:49.612Z,87.11
2018-11-06T07:19:18.864Z,87.17
2018-11-06T07:21:47.307Z,87.13
2018-11-06T07:24:15.863Z,86.99
2018-11-06T07:26:44.350Z,87.38
2018-11-06T07:29:13.559Z,87.01
2018-11-06T07:31:42.694Z,87.22
2018-11-06T07:34:11.285Z,87.48
2018-11-06T07:36:39.765Z,86.90
2018-11-06T07:39:10.812Z,86.81
2018-11-06T07:41:40.096Z,86.67
2018-11-06T07:44:09.673Z,87.12
2018-11-06T07:46:38.261Z,86.82
2018-11-06T07:49:07.167Z,86.78
2018-11-06T07:51:36.141Z,86.79
2018-11-06T07:54:04.597Z,86.37
2018-11-06T07:56:33.157Z,86.67
2018-11-06T07:59:01.675Z,86.46
2018-11-06T08:01:30.434Z,86.47
2018-11-06T08:03:59.213Z,86.41
2018-11-06T08:06:27.723Z,86.55
2018-11-06T08:08:56.332Z,86.59
2018-11-06T08:11:25.001Z,86.63
2018-11-06T08:13:54.274Z,86.33
2018-11-06T08:16:22.801Z,86.16
2018-11-06T08:18:51.251Z,85.87
2018-11-06T08:21:20.482Z,85.91
2018-11-06T08:23:49.337Z,85.90
2018-11-06T08:26:18.006Z,85.66
2018-11-06T08:28:46.468Z,85.63
2018-11-06T08:31:15.650Z,85.49
2018-11-06T08:33:43.700Z,85.52
2018-11-06T08:36:12.165Z,85.07
2018-11-06T08:38:44.620Z,84.89
2018-11-06T08:41:13.135Z,84.61
2018-11-06T08:43:41.854Z,84.50
2018-11-06T08:46:10.281Z,84.34
2018-11-06T08:48:39.173Z,83.91
2018-11-06T08:51:08.049Z,83.37
2018-11-06T08:53:36.932Z,83.48
2018-11-06T08:56:06.102Z,83.29
2018-11-06T08:58:35.656Z,83.30
2018-11-06T09:01:04.132Z,83.07
2018-11-06T09:03:33.182Z,83.20
2018-11-06T09:06:02.008Z,83.11
2018-11-06T09:08:30.415Z,82.87
2018-11-06T09:10:59.208Z,82.05
2018-11-06T09:13:27.757Z,82.33
2018-11-06T09:15:56.391Z,82.24
2018-11-06T09:18:25.055Z,81.42
2018-11-06T09:20:53.624Z,81.31
2018-11-06T09:23:22.977Z,80.55
2018-11-06T09:25:51.770Z,80.36
2018-11-06T09:28:20.428Z,80.36
2018-11-06T09:33:22.937Z,80.02
2018-11-06T09:35:51.811Z,79.61
2018-11-06T09:38:20.290Z,79.01
2018-11-06T09:40:48.758Z,79.52
2018-11-06T09:43:17.325Z,78.42
2018-11-06T09:45:45.864Z,78.26
2018-11-06T09:48:14.834Z,78.00
2018-11-06T09:50:43.464Z,77.77
2018-11-06T09:53:12.013Z,76.86
2018-11-06T09:55:40.775Z,76.59
2018-11-06T09:58:09.255Z,76.10
2018-11-06T10:00:37.984Z,75.38
2018-11-06T10:03:10.690Z,75.44
2018-11-06T10:05:39.324Z,74.84
2018-11-06T10:08:07.877Z,74.40
2018-11-06T10:10:36.443Z,74.97
2018-11-06T10:13:05.381Z,74.19
2018-11-06T10:15:33.982Z,74.16
2018-11-06T10:18:02.436Z,73.48
2018-11-06T10:20:30.974Z,73.66
2018-11-06T10:22:59.527Z,73.44
2018-11-06T10:25:28.005Z,72.77
2018-11-06T10:27:56.477Z,73.67
2018-11-06T10:30:24.996Z,73.29
2018-11-06T10:33:00.073Z,73.08
2018-11-06T10:35:28.719Z,72.93
2018-11-06T10:38:04.151Z,72.95
2018-11-06T10:40:32.882Z,72.41
2018-11-06T10:43:02.384Z,72.01
2018-11-06T10:45:31.138Z,71.50
2018-11-06T10:48:00.281Z,71.05
2018-11-06T10:50:29.216Z,69.95
2018-11-06T10:52:57.704Z,69.88
2018-11-06T10:55:26.882Z,68.59
2018-11-06T10:57:55.496Z,68.94
2018-11-06T11:00:29.407Z,68.32
2018-11-06T11:03:03.101Z,68.19
2018-11-06T11:05:31.648Z,68.68
2018-11-06T11:08:00.230Z,67.41
2018-11-06T11:10:28.744Z,65.68
2018-11-06T11:12:57.316Z,65.68
2018-11-06T11:15:25.950Z,65.11
2018-11-06T11:17:55.065Z,63.89
2018-11-06T11:20:23.779Z,62.64
2018-11-06T11:22:52.355Z,63.42
2018-11-06T11:25:27.197Z,62.44
2018-11-06T11:30:33.987Z,61.35
2018-11-06T11:33:02.509Z,61.05
2018-11-06T11:35:31.339Z,61.05
2018-11-06T11:37:59.924Z,59.93
2018-11-06T11:40:28.411Z,59.85
2018-11-06T11:42:56.999Z,58.79
2018-11-06T11:45:25.525Z,58.20
2018-11-06T11:47:55.408Z,57.63
2018-11-06T11:50:24.072Z,57.18
2018-11-06T11:55:26.713Z,55.42
2018-11-06T11:57:55.173Z,55.44
2018-11-06T12:00:26.928Z,55.25
2018-11-06T12:02:57.012Z,55.65
2018-11-06T12:05:25.672Z,55.48
2018-11-06T12:07:54.315Z,54.40
2018-11-06T12:10:22.785Z,54.67
2018-11-06T12:12:51.404Z,54.81
2018-11-06T12:15:20.027Z,54.07
2018-11-06T12:17:49.281Z,53.90
2018-11-06T12:20:18.325Z,53.85
2018-11-06T12:22:46.878Z,53.52
2018-11-06T12:25:15.677Z,52.67
2018-11-06T12:27:43.994Z,53.20
2018-11-06T12:30:16.863Z,52.97
2018-11-06T12:32:46.306Z,53.73
2018-11-06T12:35:15.380Z,52.99
2018-11-06T12:37:44.115Z,53.63
2018-11-06T12:40:13.504Z,53.20
2018-11-06T12:42:42.516Z,53.58
2018-11-06T12:45:12.769Z,53.83
2018-11-06T12:47:42.139Z,53.70
2018-11-06T12:50:10.883Z,53.27
2018-11-06T12:55:15.264Z,52.08
2018-11-06T12:57:43.868Z,52.38
2018-11-06T13:00:14.738Z,52.07
2018-11-06T13:02:44.423Z,50.37
2018-11-06T13:05:12.937Z,51.67
2018-11-06T13:07:42.489Z,50.86
2018-11-06T13:10:11.894Z,52.00
2018-11-06T13:12:40.811Z,51.39
2018-11-06T13:15:09.482Z,52.02
2018-11-06T13:17:38.584Z,51.36
2018-11-06T13:20:09.052Z,51.58
2018-11-06T13:22:38.305Z,52.12
2018-11-06T13:27:41.922Z,52.64
2018-11-06T13:30:16.422Z,53.72
2018-11-06T13:32:46.105Z,54.16
2018-11-06T13:35:15.008Z,54.74
2018-11-06T13:37:47.064Z,54.78
2018-11-06T13:40:16.593Z,54.47
2018-11-06T13:42:45.942Z,54.28
2018-11-06T13:45:19.496Z,54.51
2018-11-06T13:47:48.155Z,55.59
2018-11-06T13:50:17.506Z,55.17
2018-11-06T13:52:46.360Z,55.40
2018-11-06T13:55:16.603Z,55.75
2018-11-06T13:57:46.839Z,56.01
2018-11-06T14:00:18.483Z,55.74
2018-11-06T14:02:47.167Z,56.20
2018-11-06T14:05:22.480Z,56.25
2018-11-06T14:07:50.904Z,56.72
2018-11-06T14:10:19.399Z,57.15
2018-11-06T14:12:47.996Z,58.18
2018-11-06T14:15:16.540Z,57.70
2018-11-06T14:17:45.138Z,57.82
2018-11-06T14:20:14.952Z,59.15
2018-11-06T14:22:43.961Z,58.86
2018-11-06T14:25:12.464Z,59.10
2018-11-06T14:27:41.113Z,58.98
2018-11-06T14:30:18.229Z,58.85
2018-11-06T14:32:47.676Z,58.99
2018-11-06T14:35:17.465Z,59.97
2018-11-06T14:37:46.584Z,60.13
2018-11-06T14:40:16.101Z,59.80
2018-11-06T14:42:48.686Z,58.93
2018-11-06T14:45:18.418Z,59.82
2018-11-06T14:47:47.546Z,59.07
2018-11-06T14:50:16.087Z,59.43
2018-11-06T14:52:44.649Z,60.37
2018-11-06T14:55:15.017Z,60.33
2018-11-06T14:57:43.635Z,59.95
2018-11-06T15:00:17.204Z,60.59
2018-11-06T15:02:47.361Z,60.57
2018-11-06T15:05:16.308Z,60.96
2018-11-06T15:07:45.845Z,61.52
2018-11-06T15:10:14.323Z,61.30
2018-11-06T15:12:43.317Z,61.50
2018-11-06T15:15:13.387Z,62.03
2018-11-06T15:17:43.458Z,61.46
2018-11-06T15:20:15.091Z,61.49
2018-11-06T15:22:44.502Z,62.63
2018-11-06T15:25:14.000Z,61.81
2018-11-06T15:30:17.958Z,62.41
2018-11-06T15:32:46.777Z,62.76
2018-11-06T15:35:16.597Z,63.02
2018-11-06T15:37:45.173Z,63.28
2018-11-06T15:40:17.600Z,63.19
2018-11-06T15:42:46.324Z,63.08
2018-11-06T15:45:16.133Z,63.91
2018-11-06T15:47:45.277Z,63.87
2018-11-06T15:50:15.124Z,63.53
2018-11-06T15:52:44.598Z,64.22
2018-11-06T15:55:13.328Z,63.95
2018-11-06T15:57:42.002Z,64.75
2018-11-06T16:00:15.834Z,64.63
2018-11-06T16:02:45.043Z,64.57
2018-11-06T16:05:13.679Z,65.24
2018-11-06T16:07:42.604Z,64.47
2018-11-06T16:10:16.263Z,65.28
2018-11-06T16:12:45.665Z,65.71
2018-11-06T16:15:14.320Z,65.55
2018-11-06T16:17:42.988Z,65.65
2018-11-06T16:20:14.433Z,66.04
2018-11-06T16:22:43.375Z,66.17
2018-11-06T16:25:13.545Z,65.59
2018-11-06T16:27:48.783Z,66.25
2018-11-06T16:30:20.638Z,66.11
2018-11-06T16:32:49.763Z,66.39
2018-11-06T16:35:19.660Z,66.77
2018-11-06T16:37:48.532Z,67.01
2018-11-06T16:40:17.550Z,66.31
2018-11-06T16:42:46.623Z,66.34
2018-11-06T16:45:17.748Z,66.17
2018-11-06T16:47:47.618Z,66.62
2018-11-06T16:50:16.954Z,67.35
2018-11-06T16:52:45.500Z,67.26
2018-11-06T16:55:14.596Z,67.26
2018-11-06T17:00:21.124Z,67.03
2018-11-06T17:02:49.496Z,66.97
2018-11-06T17:05:18.059Z,67.19
2018-11-06T17:07:47.397Z,67.66
2018-11-06T17:10:16.824Z,67.67
2018-11-06T17:12:45.402Z,67.95
2018-11-06T17:17:52.318Z,67.75
2018-11-06T17:20:22.100Z,68.07
2018-11-06T17:22:50.615Z,68.27
2018-11-06T17:25:20.817Z,67.93
2018-11-06T17:27:49.428Z,68.32
2018-11-06T17:30:22.472Z,68.68
2018-11-06T17:32:50.893Z,68.55
2018-11-06T17:35:20.450Z,69.02
2018-11-06T17:37:49.096Z,69.09
2018-11-06T17:40:18.916Z,69.22
2018-11-06T17:42:47.540Z,68.88
2018-11-06T17:45:17.471Z,68.74
2018-11-06T17:47:46.049Z,69.03
2018-11-06T17:50:16.116Z,68.87
2018-11-06T17:52:44.929Z,68.81
2018-11-06T17:55:18.623Z,69.20
2018-11-06T17:57:47.024Z,69.63
2018-11-06T18:00:22.116Z,68.94
2018-11-06T18:02:50.701Z,69.55
2018-11-06T18:05:20.731Z,69.77
2018-11-06T18:07:49.367Z,69.98
2018-11-06T18:10:19.653Z,69.43
2018-11-06T18:12:51.634Z,70.27
2018-11-06T18:15:21.786Z,70.00
2018-11-06T18:17:54.044Z,70.39
2018-11-06T18:22:57.067Z,69.64
2018-11-06T18:25:25.760Z,70.12
2018-11-06T18:27:54.253Z,69.45
2018-11-06T18:30:22.807Z,69.99
2018-11-06T18:32:51.505Z,69.51
2018-11-06T18:35:20.534Z,70.11
2018-11-06T18:37:50.780Z,69.96
2018-11-06T18:40:20.349Z,70.00
2018-11-06T18:42:53.838Z,70.27
2018-11-06T18:45:23.211Z,70.37
2018-11-06T18:47:51.955Z,70.52
2018-11-06T18:50:23.752Z,70.84
2018-11-06T18:52:52.817Z,70.69
2018-11-06T18:55:22.304Z,70.98
2018-11-06T18:57:50.901Z,70.33
2018-11-06T19:00:20.814Z,71.04
2018-11-06T19:02:50.774Z,70.67
2018-11-06T19:05:19.992Z,71.04
2018-11-06T19:07:48.523Z,70.83
2018-11-06T19:10:17.717Z,70.97
2018-11-06T19:12:47.033Z,71.41
2018-11-06T19:15:17.845Z,71.52
2018-11-06T19:17:46.899Z,71.28
2018-11-06T19:20:16.071Z,71.12
2018-11-06T19:22:44.738Z,71.47
2018-11-06T19:25:14.090Z,71.60
2018-11-06T19:27:43.344Z,71.84
2018-11-06T19:30:14.902Z,72.10
2018-11-06T19:32:43.310Z,71.92
2018-11-06T19:35:11.999Z,71.70
2018-11-06T19:37:41.694Z,71.71
2018-11-06T19:40:12.113Z,72.12
2018-11-06T19:42:42.845Z,72.12
2018-11-06T19:45:12.138Z,72.00
2018-11-06T19:47:40.749Z,72.19
2018-11-06T19:50:12.299Z,72.43
2018-11-06T19:52:41.510Z,72.15
2018-11-06T19:55:11.541Z,72.33
2018-11-06T19:57:40.081Z,72.41
2018-11-06T20:00:14.575Z,72.23
2018-11-06T20:02:44.309Z,72.85
2018-11-06T20:05:12.846Z,72.91
2018-11-06T20:07:42.731Z,72.59
2018-11-06T20:10:13.655Z,72.93
2018-11-06T20:12:43.468Z,72.85
2018-11-06T20:15:13.393Z,72.84
2018-11-06T20:17:42.586Z,72.79
2018-11-06T20:20:14.553Z,73.09
2018-11-06T20:22:43.463Z,72.92
2018-11-06T20:25:12.957Z,73.22
2018-11-06T20:27:41.762Z,73.28
2018-11-06T20:30:12.569Z,73.46
2018-11-06T20:32:41.558Z,73.08
2018-11-06T20:35:17.172Z,73.21
2018-11-06T20:37:45.794Z,73.68
2018-11-06T20:40:17.470Z,73.57
2018-11-06T20:42:46.641Z,74.01
2018-11-06T20:45:16.363Z,73.39
2018-11-06T20:47:45.470Z,73.78
2018-11-06T20:50:18.108Z,74.05
2018-11-06T20:52:50.051Z,73.89
2018-11-06T20:55:19.450Z,73.72
2018-11-06T20:57:48.818Z,74.31
2018-11-06T21:00:20.161Z,73.90
2018-11-06T21:02:49.587Z,74.55
2018-11-06T21:05:18.245Z,73.94
2018-11-06T21:07:47.375Z,74.66
2018-11-06T21:10:17.968Z,74.18
2018-11-06T21:12:47.086Z,74.61
2018-11-06T21:15:15.699Z,74.72
2018-11-06T21:17:45.645Z,74.43
2018-11-06T21:20:15.554Z,74.53
2018-11-06T21:22:44.369Z,74.66
2018-11-06T21:25:13.982Z,74.74
2018-11-06T21:27:43.283Z,75.20
2018-11-06T21:30:13.818Z,75.32
2018-11-06T21:32:43.762Z,75.30
2018-11-06T21:35:12.451Z,75.77
2018-11-06T21:37:41.600Z,75.44
2018-11-06T21:40:12.966Z,75.92
2018-11-06T21:42:42.065Z,75.85
2018-11-06T21:45:11.657Z,76.18
2018-11-06T21:47:40.996Z,76.19
2018-11-06T21:50:11.084Z,76.34
2018-11-06T21:52:39.698Z,76.80
2018-11-06T21:55:09.867Z,76.55
2018-11-06T21:57:38.988Z,76.82
2018-11-06T22:00:09.953Z,76.33
2018-11-06T22:02:42.485Z,76.66
2018-11-06T22:05:12.508Z,76.95
2018-11-06T22:07:41.663Z,77.05
2018-11-06T22:10:12.683Z,77.01
2018-11-06T22:12:42.050Z,77.34
2018-11-06T22:15:11.739Z,77.25
2018-11-06T22:17:41.320Z,77.65
2018-11-06T22:20:11.888Z,77.49
2018-11-06T22:22:44.293Z,77.45
2018-11-06T22:25:12.889Z,77.68
2018-11-06T22:27:41.659Z,77.87
2018-11-06T22:30:12.224Z,77.86
2018-11-06T22:32:41.430Z,78.07
2018-11-06T22:35:11.755Z,78.13
2018-11-06T22:37:40.395Z,78.47
2018-11-06T22:42:44.405Z,78.46
2018-11-06T22:45:14.226Z,78.71
2018-11-06T22:47:42.964Z,78.37
2018-11-06T22:50:15.294Z,78.60
2018-11-06T22:52:44.551Z,78.74
2018-11-06T22:55:14.310Z,78.75
2018-11-06T22:57:49.284Z,78.95
2018-11-06T23:00:24.675Z,78.76
2018-11-06T23:02:53.524Z,78.80
2018-11-06T23:05:26.112Z,79.14
2018-11-06T23:07:59.860Z,78.98
2018-11-06T23:10:28.492Z,78.69
2018-11-06T23:12:57.764Z,79.01
2018-11-06T23:15:26.312Z,78.90
2018-11-06T23:17:54.793Z,79.08
2018-11-06T23:20:23.515Z,79.41
2018-11-06T23:22:52.802Z,79.49
2018-11-06T23:25:21.510Z,79.15
2018-11-06T23:27:50.065Z,79.32
2018-11-06T23:30:18.734Z,79.43
2018-11-06T23:32:47.193Z,79.71
2018-11-06T23:35:15.614Z,79.50
2018-11-06T23:37:44.279Z,79.67
2018-11-06T23:40:12.841Z,79.67
2018-11-06T23:42:42.299Z,80.00
2018-11-06T23:45:11.049Z,79.94
2018-11-06T23:47:39.618Z,80.04
2018-11-06T23:50:09.195Z,79.96
2018-11-06T23:52:39.563Z,80.24
2018-11-06T23:55:08.550Z,80.56
2018-11-06T23:57:37.210Z,80.58
